Time;durP1;ratioP1;P1;durP2;ratioP2;P2;SDS_P1;SDS_P2;PMS_P1;PMS_P2;Temp;Humidity;BMP_temperature;BMP_pressure;BME280_temperature;BME280_humidity;BME280_pressure;Samples;Min_cycle;Max_cycle;Signal;HPM_P1;HPM_P2
2023/01/14 00:00:12;;;;;;;32.47;29.00;;;7.00;91.20;;;;;;4994687;28;20178;-87
2023/01/14 00:02:37;;;;;;;31.63;29.00;;;7.00;91.20;;;;;;4994522;28;20218;-87
2023/01/14 00:05:03;;;;;;;28.97;24.93;;;7.00;91.30;;;;;;4996171;28;20624;-86
2023/01/14 00:07:29;;;;;;;29.00;24.70;;;7.00;90.90;;;;;;4993452;28;20178;-86
2023/01/14 00:09:54;;;;;;;30.70;27.60;;;7.00;90.80;;;;;;4994356;28;20636;-87
2023/01/14 00:12:20;;;;;;;28.70;25.10;;;6.90;90.80;;;;;;4994184;28;20217;-86
2023/01/14 00:14:46;;;;;;;29.27;25.70;;;6.90;90.70;;;;;;4994431;28;20269;-87
2023/01/14 00:17:11;;;;;;;27.90;25.23;;;6.80;90.90;;;;;;4995157;28;20198;-87
2023/01/14 00:19:37;;;;;;;34.60;26.87;;;6.80;90.90;;;;;;4994188;28;20666;-87
2023/01/14 00:22:03;;;;;;;28.47;25.50;;;6.70;91.00;;;;;;4994112;28;20178;-87
2023/01/14 00:24:29;;;;;;;30.90;25.80;;;6.70;90.70;;;;;;4993870;28;20750;-87
2023/01/14 00:26:56;;;;;;;29.10;26.30;;;6.70;90.60;;;;;;4994318;28;20178;-86
2023/01/14 00:29:31;;;;;;;31.80;28.43;;;6.70;90.80;;;;;;4994040;28;20636;-86
2023/01/14 00:31:58;;;;;;;29.23;26.77;;;6.60;90.90;;;;;;4994010;28;20165;-87
2023/01/14 00:34:26;;;;;;;30.53;26.73;;;6.60;91.00;;;;;;4995070;28;20198;-87
2023/01/14 00:36:52;;;;;;;32.70;29.70;;;6.60;91.10;;;;;;4993922;28;20186;-87
2023/01/14 00:39:17;;;;;;;29.87;27.03;;;6.50;91.20;;;;;;4995051;28;20178;-87
2023/01/14 00:41:43;;;;;;;29.60;26.73;;;6.50;91.30;;;;;;4995191;28;20537;-86
2023/01/14 00:44:09;;;;;;;28.83;26.63;;;6.50;91.20;;;;;;4993550;28;20583;-87
2023/01/14 00:46:37;;;;;;;28.80;25.77;;;6.50;91.20;;;;;;4994910;28;20174;-87
2023/01/14 00:49:05;;;;;;;29.00;26.17;;;6.50;91.10;;;;;;4994224;28;20201;-87
2023/01/14 00:51:32;;;;;;;30.10;27.10;;;6.40;91.20;;;;;;4993593;28;20170;-87
2023/01/14 00:53:59;;;;;;;31.70;28.70;;;6.40;91.20;;;;;;4993623;28;20240;-87
2023/01/14 00:56:25;;;;;;;34.07;30.50;;;6.40;91.30;;;;;;4994715;28;20167;-87
2023/01/14 00:58:51;;;;;;;34.23;30.80;;;6.30;91.40;;;;;;4993559;28;20273;-87
2023/01/14 01:01:17;;;;;;;35.07;31.63;;;6.30;91.70;;;;;;4993478;28;20185;-87
2023/01/14 01:03:46;;;;;;;34.03;30.43;;;6.30;91.70;;;;;;4993295;28;20699;-86
2023/01/14 01:06:14;;;;;;;41.97;29.83;;;6.30;91.70;;;;;;4993371;28;20209;-87
2023/01/14 01:08:39;;;;;;;32.00;29.50;;;6.30;91.80;;;;;;4993679;28;20170;-86
2023/01/14 01:11:05;;;;;;;30.93;28.27;;;6.30;91.80;;;;;;4993359;28;20178;-86
2023/01/14 01:13:31;;;;;;;31.07;28.13;;;6.30;91.70;;;;;;4993114;28;20249;-87
2023/01/14 01:16:03;;;;;;;32.27;29.53;;;6.30;91.70;;;;;;4994361;28;20178;-86
2023/01/14 01:18:29;;;;;;;31.70;29.13;;;6.30;91.70;;;;;;4992913;28;20181;-87
2023/01/14 01:21:06;;;;;;;31.60;28.90;;;6.30;91.70;;;;;;4993153;28;20228;-87
2023/01/14 01:23:33;;;;;;;33.40;30.37;;;6.30;91.70;;;;;;4992805;28;20277;-87
2023/01/14 01:26:03;;;;;;;34.80;31.23;;;6.30;91.70;;;;;;4992999;28;20178;-87
2023/01/14 01:28:30;;;;;;;34.07;31.10;;;6.20;91.70;;;;;;4994108;28;20178;-87
2023/01/14 01:31:04;;;;;;;35.43;32.30;;;6.20;91.80;;;;;;4993006;28;20231;-87
2023/01/14 01:33:30;;;;;;;35.07;31.77;;;6.20;91.90;;;;;;4994107;28;20202;-86
2023/01/14 01:36:04;;;;;;;35.70;32.20;;;6.20;92.00;;;;;;4992993;28;20197;-87
2023/01/14 01:38:31;;;;;;;36.20;32.60;;;6.20;92.10;;;;;;4993139;28;20192;-87
2023/01/14 01:40:57;;;;;;;36.80;33.57;;;6.20;92.20;;;;;;4992914;28;20243;-86
2023/01/14 01:43:24;;;;;;;35.33;32.17;;;6.20;92.30;;;;;;4993964;28;20213;-86
2023/01/14 01:45:51;;;;;;;36.83;33.13;;;6.20;92.40;;;;;;4992689;28;20560;-87
2023/01/14 01:48:24;;;;;;;35.40;32.07;;;6.30;92.40;;;;;;4993027;28;20174;-87
2023/01/14 01:50:59;;;;;;;37.60;33.33;;;6.30;92.40;;;;;;4992680;28;20566;-87
2023/01/14 01:53:25;;;;;;;40.73;36.63;;;6.30;92.40;;;;;;4993895;28;20631;-87
2023/01/14 01:55:53;;;;;;;41.77;38.37;;;6.40;92.60;;;;;;4992671;28;20272;-87
2023/01/14 01:58:20;;;;;;;40.20;36.70;;;6.40;92.70;;;;;;4993887;28;20265;-87
2023/01/14 02:00:46;;;;;;;42.47;38.53;;;6.40;92.90;;;;;;4993885;28;20178;-87
2023/01/14 02:03:19;;;;;;;44.43;40.07;;;6.30;93.00;;;;;;4992752;28;20713;-86
2023/01/14 02:05:46;;;;;;;44.30;40.87;;;6.30;93.00;;;;;;4992707;28;20170;-87
2023/01/14 02:08:12;;;;;;;39.53;36.43;;;6.40;93.10;;;;;;4992484;28;20659;-87
2023/01/14 02:10:53;;;;;;;41.00;37.30;;;6.30;93.20;;;;;;4992528;28;20178;-88
2023/01/14 02:13:24;;;;;;;40.10;37.07;;;6.30;93.20;;;;;;4992514;28;20587;-87
2023/01/14 02:16:01;;;;;;;44.57;41.23;;;6.30;93.20;;;;;;4993702;28;20170;-87
2023/01/14 02:18:35;;;;;;;38.90;35.53;;;6.40;93.20;;;;;;4993016;28;20234;-86
2023/01/14 02:21:23;;;;;;;44.20;40.20;;;6.40;93.00;;;;;;4992348;28;20181;-87
2023/01/14 02:24:04;;;;;;;41.37;37.20;;;6.40;92.90;;;;;;4992108;28;20218;-86
2023/01/14 02:26:51;;;;;;;40.17;36.50;;;6.30;92.90;;;;;;4992371;28;20691;-87
2023/01/14 02:29:22;;;;;;;40.57;37.53;;;6.30;92.90;;;;;;4992453;28;20278;-86
2023/01/14 02:32:10;;;;;;;42.60;38.37;;;6.30;92.80;;;;;;4996993;28;20185;-87
2023/01/14 02:34:44;;;;;;;43.43;39.47;;;6.30;92.80;;;;;;4996168;28;20664;-86
2023/01/14 02:37:22;;;;;;;43.93;40.33;;;6.30;92.80;;;;;;4997342;28;20158;-87
2023/01/14 02:40:27;;;;;;;41.03;36.87;;;6.30;92.70;;;;;;4997260;28;20162;-86
2023/01/14 02:44:11;;;;;;;40.00;36.30;;;6.40;92.50;;;;;;4995878;28;20210;-86
2023/01/14 02:46:13;;;;;;;38.03;34.17;;;6.40;92.40;;;;;;4983929;28;20232;-86
2023/01/14 02:48:42;;;;;;;38.63;34.80;;;6.40;92.40;;;;;;4997418;28;20508;-86
2023/01/14 02:51:09;;;;;;;37.73;34.00;;;6.50;92.30;;;;;;4995896;28;20173;-87
2023/01/14 02:53:35;;;;;;;36.13;33.13;;;6.50;92.20;;;;;;4995766;28;20198;-87
2023/01/14 02:56:01;;;;;;;36.80;33.37;;;6.50;92.10;;;;;;4995713;28;20185;-87
2023/01/14 02:58:56;;;;;;;35.47;32.63;;;6.50;92.10;;;;;;4996943;28;20644;-87
2023/01/14 03:01:36;;;;;;;35.10;31.87;;;6.50;92.00;;;;;;4996914;28;20162;-87
2023/01/14 03:04:35;;;;;;;33.33;30.70;;;6.50;91.90;;;;;;4995432;28;20214;-86
2023/01/14 03:07:15;;;;;;;30.77;28.87;;;6.50;91.80;;;;;;4995662;28;20170;-87
2023/01/14 03:10:01;;;;;;;34.77;31.33;;;6.50;91.90;;;;;;4995582;28;20177;-87
2023/01/14 03:12:44;;;;;;;33.03;30.07;;;6.50;91.90;;;;;;4996690;28;20166;-87
2023/01/14 03:15:13;;;;;;;31.00;28.60;;;6.50;91.80;;;;;;4997306;28;20490;-87
2023/01/14 03:18:00;;;;;;;22.03;20.33;;;6.50;91.80;;;;;;4995441;28;20178;-86
2023/01/14 03:20:30;;;;;;;22.17;19.97;;;6.50;91.70;;;;;;4995288;28;20189;-86
2023/01/14 03:23:00;;;;;;;22.70;19.97;;;6.50;91.70;;;;;;4996883;28;20565;-86
2023/01/14 03:25:28;;;;;;;22.50;20.17;;;6.50;91.50;;;;;;4997173;28;20154;-87
2023/01/14 03:27:57;;;;;;;21.20;19.00;;;6.50;91.50;;;;;;4996399;28;20174;-87
2023/01/14 03:30:30;;;;;;;22.63;20.17;;;6.50;91.40;;;;;;4996646;28;20236;-87
2023/01/14 03:33:06;;;;;;;20.80;19.03;;;6.50;91.40;;;;;;4995103;28;20221;-87
2023/01/14 03:35:38;;;;;;;20.63;18.90;;;6.50;91.40;;;;;;4995096;28;20178;-87
2023/01/14 03:38:27;;;;;;;22.93;20.83;;;6.50;91.30;;;;;;4996198;28;20177;-86
2023/01/14 03:40:56;;;;;;;30.27;27.77;;;6.50;91.40;;;;;;4995830;28;20170;-86
2023/01/14 03:43:48;;;;;;;30.63;28.10;;;6.40;91.40;;;;;;4994719;28;20216;-86
2023/01/14 03:46:15;;;;;;;31.93;28.77;;;6.40;91.50;;;;;;4994974;28;20264;-87
2023/01/14 03:48:40;;;;;;;29.07;26.33;;;6.40;91.40;;;;;;4994739;28;20677;-87
2023/01/14 03:51:34;;;;;;;30.87;28.47;;;6.40;91.30;;;;;;4994814;28;20236;-87
2023/01/14 03:54:24;;;;;;;30.57;27.73;;;6.40;91.30;;;;;;4994686;28;20210;-87
2023/01/14 03:57:04;;;;;;;30.03;27.83;;;6.30;91.30;;;;;;4994654;28;20174;-87
2023/01/14 03:59:47;;;;;;;27.67;25.63;;;6.30;91.30;;;;;;4995811;28;20201;-86
2023/01/14 04:02:13;;;;;;;27.57;25.43;;;6.30;91.10;;;;;;4994588;28;20228;-87
2023/01/14 04:04:41;;;;;;;27.63;25.33;;;6.30;91.00;;;;;;4994513;28;20687;-87
2023/01/14 04:07:07;;;;;;;26.00;23.77;;;6.30;91.00;;;;;;4995620;28;20704;-87
2023/01/14 04:09:33;;;;;;;26.20;23.97;;;6.30;90.80;;;;;;4994449;28;20269;-86
2023/01/14 04:11:58;;;;;;;25.20;23.37;;;6.30;90.70;;;;;;4994345;28;20269;-86
2023/01/14 04:17:08;;;;;;;23.27;21.83;;;6.50;90.40;;;;;;4995802;28;20166;-87
2023/01/14 04:19:33;;;;;;;24.67;22.77;;;6.50;90.30;;;;;;4994492;28;20178;-87
2023/01/14 04:21:59;;;;;;;23.97;22.17;;;6.50;90.40;;;;;;4995608;28;20181;-87
2023/01/14 04:24:24;;;;;;;23.07;20.83;;;6.50;90.20;;;;;;4993979;28;20692;-87
2023/01/14 04:26:50;;;;;;;25.20;22.80;;;6.50;90.20;;;;;;4994052;28;20324;-86
2023/01/14 04:29:15;;;;;;;26.07;23.97;;;6.50;90.30;;;;;;4994093;28;20236;-87
2023/01/14 04:31:41;;;;;;;26.07;23.57;;;6.50;90.50;;;;;;4993946;28;20170;-86
2023/01/14 04:34:06;;;;;;;26.03;23.77;;;6.50;90.50;;;;;;4993905;28;20205;-87
2023/01/14 04:36:32;;;;;;;26.17;24.10;;;6.50;90.50;;;;;;4995429;28;20182;-86
2023/01/14 04:38:57;;;;;;;28.43;25.70;;;6.50;90.60;;;;;;4995130;28;20651;-86
2023/01/14 04:44:07;;;;;;;28.77;26.27;;;6.50;90.90;;;;;;4995162;28;20705;-86
2023/01/14 04:46:32;;;;;;;30.13;27.70;;;6.60;90.90;;;;;;4993755;28;20268;-86
2023/01/14 04:48:58;;;;;;;30.53;28.20;;;6.60;91.00;;;;;;4993583;28;20189;-86
2023/01/14 04:51:23;;;;;;;30.00;27.80;;;6.60;91.20;;;;;;4993753;28;20181;-86
2023/01/14 04:53:49;;;;;;;30.90;28.53;;;6.60;91.40;;;;;;4993031;28;20603;-87
2023/01/14 04:56:14;;;;;;;30.77;28.50;;;6.50;91.50;;;;;;4995056;28;20360;-86
2023/01/14 04:58:40;;;;;;;32.77;29.43;;;6.50;91.70;;;;;;4993557;28;20190;-86
2023/01/14 05:01:05;;;;;;;33.80;30.40;;;6.60;91.50;;;;;;4993477;28;20229;-87
2023/01/14 05:03:31;;;;;;;33.77;30.20;;;6.60;91.40;;;;;;4993220;28;20224;-87
2023/01/14 05:05:56;;;;;;;33.50;31.13;;;6.60;91.40;;;;;;4994503;28;20178;-86
2023/01/14 05:08:22;;;;;;;32.93;29.93;;;6.60;91.60;;;;;;4993293;28;20636;-87
2023/01/14 05:10:51;;;;;;;33.67;30.70;;;6.60;91.70;;;;;;4993232;28;20632;-87
2023/01/14 05:13:17;;;;;;;35.87;32.63;;;6.60;91.70;;;;;;4993333;28;20206;-87
2023/01/14 05:15:44;;;;;;;33.17;29.63;;;6.60;91.60;;;;;;4993180;28;20181;-87
2023/01/14 05:18:12;;;;;;;31.37;28.77;;;6.60;91.50;;;;;;4994682;28;20253;-87
2023/01/14 05:20:40;;;;;;;34.20;30.87;;;6.70;91.60;;;;;;4993183;28;20553;-87
2023/01/14 05:23:11;;;;;;;37.07;33.57;;;6.60;91.70;;;;;;4994109;28;20263;-87
2023/01/14 05:25:37;;;;;;;29.77;27.47;;;6.60;91.80;;;;;;4993925;28;20658;-87
2023/01/14 05:28:05;;;;;;;26.97;24.63;;;6.70;91.70;;;;;;4994489;28;20178;-87
2023/01/14 05:30:31;;;;;;;35.00;31.80;;;6.70;91.70;;;;;;4994621;28;20174;-87
2023/01/14 05:32:57;;;;;;;38.87;31.43;;;6.70;91.60;;;;;;4994195;28;20260;-87
2023/01/14 05:35:23;;;;;;;33.00;30.17;;;6.70;91.60;;;;;;4994078;28;20659;-87
2023/01/14 05:37:49;;;;;;;35.80;32.70;;;6.70;91.60;;;;;;4994328;28;20182;-87
2023/01/14 05:40:15;;;;;;;36.03;32.30;;;6.70;91.60;;;;;;4992808;28;20185;-87
2023/01/14 05:48:10;;;;;;;31.73;29.03;;;6.80;91.50;;;;;;4994018;28;20173;-87
2023/01/14 05:50:37;;;;;;;33.93;29.80;;;6.80;91.30;;;;;;4992819;28;20637;-87
2023/01/14 05:53:03;;;;;;;38.33;29.33;;;6.80;91.10;;;;;;4992731;28;20676;-87
2023/01/14 05:55:29;;;;;;;34.10;29.30;;;6.80;91.10;;;;;;4992677;28;20193;-87
2023/01/14 05:58:02;;;;;;;31.20;28.27;;;6.80;91.10;;;;;;4994033;28;20553;-87
2023/01/14 06:06:22;;;;;;;33.73;27.90;;;6.80;90.80;;;;;;4996829;28;20185;-87
2023/01/14 06:08:49;;;;;;;28.23;25.37;;;6.80;91.10;;;;;;4996700;28;20178;-87
2023/01/14 06:11:14;;;;;;;48.87;26.23;;;6.80;90.80;;;;;;4996676;28;20181;-87
2023/01/14 06:13:40;;;;;;;33.50;29.87;;;6.80;90.90;;;;;;4996454;28;20590;-87
2023/01/14 06:16:08;;;;;;;27.83;25.67;;;6.80;91.00;;;;;;4996613;28;20181;-87
2023/01/14 06:18:43;;;;;;;32.67;29.20;;;6.80;91.10;;;;;;4997629;28;20184;-87
2023/01/14 06:21:14;;;;;;;33.70;30.17;;;6.80;91.10;;;;;;4997653;28;20594;-87
2023/01/14 06:23:39;;;;;;;31.70;29.00;;;6.80;91.30;;;;;;4996105;28;20284;-86
2023/01/14 06:26:11;;;;;;;41.07;31.47;;;6.80;91.20;;;;;;4996645;28;20632;-86
2023/01/14 06:28:37;;;;;;;33.40;29.93;;;6.80;91.30;;;;;;4996489;28;20174;-86
2023/01/14 06:31:08;;;;;;;34.63;30.37;;;6.80;91.20;;;;;;4996467;28;20245;-87
2023/01/14 06:33:33;;;;;;;34.00;29.90;;;6.80;91.20;;;;;;4997426;28;20794;-86
2023/01/14 06:36:00;;;;;;;33.63;30.40;;;6.70;91.20;;;;;;4996140;28;20182;-86
2023/01/14 06:38:25;;;;;;;31.67;28.60;;;6.80;91.20;;;;;;4997392;28;20217;-86
2023/01/14 06:40:51;;;;;;;36.10;29.13;;;6.70;91.10;;;;;;4996041;28;20182;-87
2023/01/14 06:43:16;;;;;;;27.10;24.67;;;6.80;90.90;;;;;;4995822;28;20208;-87
2023/01/14 06:45:42;;;;;;;27.50;24.17;;;6.70;90.80;;;;;;4997384;28;20177;-87
2023/01/14 06:48:08;;;;;;;28.50;24.97;;;6.70;90.50;;;;;;4996239;28;20210;-87
2023/01/14 06:50:33;;;;;;;31.27;26.87;;;6.70;90.60;;;;;;4997597;28;20179;-87
2023/01/14 06:53:02;;;;;;;27.77;24.57;;;6.70;90.60;;;;;;4997473;28;20229;-87
2023/01/14 06:55:28;;;;;;;35.93;27.10;;;6.70;90.70;;;;;;4996289;28;20185;-87
2023/01/14 06:57:54;;;;;;;37.80;28.50;;;6.60;90.60;;;;;;4996103;28;20641;-87
2023/01/14 07:00:20;;;;;;;33.60;25.93;;;6.60;90.70;;;;;;4997351;28;20185;-87
2023/01/14 07:02:45;;;;;;;27.47;24.70;;;6.60;90.60;;;;;;4995985;28;20218;-87
2023/01/14 07:05:11;;;;;;;29.07;25.27;;;6.60;90.70;;;;;;4996150;28;20218;-87
2023/01/14 07:07:36;;;;;;;29.73;26.53;;;6.50;90.50;;;;;;4996592;28;20184;-87
2023/01/14 07:10:02;;;;;;;29.83;26.27;;;6.50;90.60;;;;;;4997360;28;20181;-87
2023/01/14 07:12:27;;;;;;;35.70;26.87;;;6.50;90.40;;;;;;4995515;28;20178;-87
2023/01/14 07:14:53;;;;;;;27.37;25.00;;;6.40;90.40;;;;;;4995579;28;20220;-87
2023/01/14 07:17:18;;;;;;;31.10;25.10;;;6.40;90.40;;;;;;4996667;28;20166;-87
2023/01/14 07:19:44;;;;;;;29.47;25.73;;;6.40;90.40;;;;;;4996122;28;20257;-87
2023/01/14 07:22:09;;;;;;;29.27;26.53;;;6.30;90.40;;;;;;4996663;28;20658;-87
2023/01/14 07:24:37;;;;;;;31.10;25.13;;;6.20;90.60;;;;;;4997046;28;20217;-87
2023/01/14 07:27:03;;;;;;;29.07;26.23;;;6.20;90.60;;;;;;4995545;28;20640;-87
2023/01/14 07:29:29;;;;;;;31.07;27.87;;;6.20;90.60;;;;;;4995654;28;20188;-87
2023/01/14 07:31:54;;;;;;;29.60;26.40;;;6.20;90.50;;;;;;4995449;28;20175;-87
2023/01/14 07:34:20;;;;;;;29.63;27.10;;;6.20;90.60;;;;;;4996887;28;20765;-86
2023/01/14 07:36:45;;;;;;;31.43;28.20;;;6.10;90.70;;;;;;4995369;28;20225;-87
2023/01/14 07:39:11;;;;;;;29.77;27.17;;;6.00;90.80;;;;;;4996711;28;20178;-86
2023/01/14 07:41:36;;;;;;;37.30;29.63;;;6.00;91.00;;;;;;4995358;28;20708;-86
2023/01/14 07:44:04;;;;;;;38.63;28.73;;;6.00;91.00;;;;;;4995219;28;20231;-88
2023/01/14 07:46:29;;;;;;;33.17;29.50;;;6.00;90.90;;;;;;4995295;28;20648;-86
2023/01/14 07:48:55;;;;;;;32.23;28.83;;;6.00;90.80;;;;;;4996318;28;20226;-87
2023/01/14 07:51:23;;;;;;;37.60;31.03;;;5.90;90.90;;;;;;4996412;28;20178;-87
2023/01/14 07:53:49;;;;;;;35.67;29.83;;;5.80;91.10;;;;;;4995040;28;20201;-87
2023/01/14 07:56:14;;;;;;;35.43;32.20;;;5.80;91.40;;;;;;4995193;28;20306;-87
2023/01/14 07:58:40;;;;;;;37.47;31.20;;;5.70;91.50;;;;;;4995073;28;20680;-87
2023/01/14 08:01:07;;;;;;;37.73;32.10;;;5.80;91.60;;;;;;4996539;28;20189;-87
2023/01/14 08:03:32;;;;;;;34.47;31.00;;;5.80;91.60;;;;;;4994852;28;20209;-87
2023/01/14 08:06:02;;;;;;;36.13;32.57;;;5.80;91.60;;;;;;4994836;28;20185;-87
2023/01/14 08:08:28;;;;;;;38.43;31.43;;;5.70;91.70;;;;;;4996107;28;20219;-87
2023/01/14 08:10:53;;;;;;;40.80;34.57;;;5.80;91.70;;;;;;4998756;28;20182;-88
2023/01/14 08:13:19;;;;;;;37.67;33.47;;;5.70;91.80;;;;;;4997980;28;20198;-87
2023/01/14 08:15:45;;;;;;;35.93;31.47;;;5.80;91.70;;;;;;4996631;28;20174;-88
2023/01/14 08:18:10;;;;;;;41.13;32.03;;;5.80;91.80;;;;;;4998431;28;20224;-88
2023/01/14 08:20:36;;;;;;;34.57;30.97;;;5.80;91.80;;;;;;4997957;28;20285;-88
2023/01/14 08:23:01;;;;;;;46.20;32.50;;;5.80;91.70;;;;;;4998443;28;20707;-88
2023/01/14 08:25:27;;;;;;;37.73;33.43;;;5.80;91.70;;;;;;4997814;28;20189;-88
2023/01/14 08:27:53;;;;;;;37.07;33.07;;;5.80;91.60;;;;;;4996656;28;20180;-89
2023/01/14 08:30:20;;;;;;;31.90;29.07;;;5.80;91.60;;;;;;4998831;28;20232;-87
2023/01/14 08:32:47;;;;;;;33.97;29.50;;;5.90;91.40;;;;;;4997046;28;20198;-87
2023/01/14 08:35:13;;;;;;;37.87;30.93;;;5.90;91.40;;;;;;4997575;28;20551;-87
2023/01/14 08:37:40;;;;;;;48.90;30.43;;;5.90;91.40;;;;;;4996733;28;20181;-88
2023/01/14 08:40:06;;;;;;;33.93;28.37;;;5.90;91.40;;;;;;4996893;28;20181;-88
2023/01/14 08:42:31;;;;;;;43.20;32.10;;;5.90;91.10;;;;;;4996860;28;20201;-89
2023/01/14 08:44:57;;;;;;;34.00;30.33;;;5.90;91.30;;;;;;4996937;28;20181;-87
2023/01/14 08:47:22;;;;;;;34.67;31.00;;;5.90;91.30;;;;;;4997799;28;20520;-88
2023/01/14 08:49:48;;;;;;;34.07;29.03;;;6.00;91.30;;;;;;4994861;28;20170;-88
2023/01/14 08:52:13;;;;;;;34.27;30.17;;;6.00;91.30;;;;;;4993496;28;20208;-88
2023/01/14 08:54:39;;;;;;;34.37;31.03;;;6.00;91.20;;;;;;4993718;28;20201;-88
2023/01/14 08:57:04;;;;;;;42.40;31.50;;;6.00;91.10;;;;;;4994805;28;20174;-88
2023/01/14 08:59:30;;;;;;;37.87;27.27;;;6.00;91.00;;;;;;4994659;28;20537;-88
2023/01/14 09:01:55;;;;;;;31.50;26.47;;;6.10;90.60;;;;;;4993409;28;20216;-88
2023/01/14 09:04:23;;;;;;;31.63;25.87;;;6.10;90.60;;;;;;4993682;28;20212;-87
2023/01/14 09:17:45;;;;;;;32.23;26.90;;;6.00;90.70;;;;;;4994700;28;20244;-87
2023/01/14 09:20:17;;;;;;;38.37;28.10;;;6.00;90.70;;;;;;4994342;28;20174;-87
2023/01/14 09:22:44;;;;;;;34.17;27.10;;;6.00;90.70;;;;;;4993917;28;20237;-88
2023/01/14 09:25:10;;;;;;;30.70;26.73;;;6.00;90.70;;;;;;4993120;28;20178;-87
2023/01/14 09:27:36;;;;;;;34.07;29.07;;;6.10;90.70;;;;;;4993033;28;20189;-90
2023/01/14 09:30:02;;;;;;;40.17;27.87;;;6.10;90.80;;;;;;4993037;28;20174;-89
2023/01/14 09:32:28;;;;;;;46.10;29.50;;;6.10;90.50;;;;;;4992892;28;20174;-90
2023/01/14 09:34:53;;;;;;;42.73;29.47;;;6.10;90.50;;;;;;4994765;28;20186;-90
2023/01/14 09:37:33;;;;;;;39.33;28.87;;;6.20;90.60;;;;;;4994151;28;20178;-89
2023/01/14 09:39:59;;;;;;;33.40;28.50;;;6.10;90.60;;;;;;4992673;28;20252;-89
2023/01/14 09:42:34;;;;;;;42.97;26.67;;;6.10;90.60;;;;;;4993986;28;20257;-89
2023/01/14 09:45:25;;;;;;;30.60;26.43;;;6.10;90.40;;;;;;4994023;28;20647;-89
2023/01/14 09:47:52;;;;;;;33.83;27.07;;;6.10;90.40;;;;;;4994151;28;20162;-89
2023/01/14 09:50:24;;;;;;;32.77;27.93;;;6.20;90.40;;;;;;4992780;28;20174;-89
2023/01/14 09:52:49;;;;;;;42.63;28.10;;;6.20;90.40;;;;;;4993968;28;20289;-90
2023/01/14 09:55:25;;;;;;;53.70;28.77;;;6.20;90.40;;;;;;4994145;28;20209;-89
2023/01/14 09:57:57;;;;;;;39.63;27.77;;;6.20;90.30;;;;;;4994112;28;20716;-89
2023/01/14 10:00:29;;;;;;;34.50;27.27;;;6.20;90.20;;;;;;4992695;28;20185;-89
2023/01/14 10:03:22;;;;;;;34.03;26.93;;;6.30;90.20;;;;;;4992517;28;20206;-89
2023/01/14 10:05:57;;;;;;;41.70;28.10;;;6.20;90.10;;;;;;4992859;28;20177;-89
2023/01/14 10:08:24;;;;;;;39.37;27.40;;;6.30;90.20;;;;;;4994112;28;20165;-88
2023/01/14 10:10:50;;;;;;;40.97;29.33;;;6.30;90.10;;;;;;4994108;28;20170;-89
2023/01/14 10:13:28;;;;;;;27.83;25.03;;;6.30;90.20;;;;;;4992412;28;20687;-89
2023/01/14 10:15:58;;;;;;;42.17;28.27;;;6.30;90.10;;;;;;4992440;28;20216;-89
2023/01/14 10:18:39;;;;;;;36.07;27.90;;;6.30;90.20;;;;;;4994006;28;20533;-88
2023/01/14 10:21:33;;;;;;;38.43;28.90;;;6.30;90.20;;;;;;4993608;28;20652;-88
2023/01/14 10:23:59;;;;;;;41.20;29.30;;;6.30;90.10;;;;;;4993472;28;20623;-89
2023/01/14 10:26:31;;;;;;;38.17;28.57;;;6.40;90.00;;;;;;4993653;28;20219;-89
2023/01/14 10:29:01;;;;;;;39.63;31.07;;;6.40;90.00;;;;;;4994205;28;20230;-89
2023/01/14 10:31:29;;;;;;;41.40;30.40;;;6.40;90.00;;;;;;4993628;28;20170;-90
2023/01/14 10:33:57;;;;;;;52.97;29.90;;;6.40;90.10;;;;;;4992265;28;20198;-89
2023/01/14 10:36:24;;;;;;;44.43;29.23;;;6.40;90.00;;;;;;4993473;28;20182;-89
2023/01/14 10:38:50;;;;;;;51.93;30.63;;;6.40;90.00;;;;;;4992330;28;20189;-89
2023/01/14 10:41:48;;;;;;;47.93;31.37;;;6.40;90.10;;;;;;4993776;28;20186;-88
2023/01/14 10:44:04;;;;;;;42.43;29.87;;;6.40;90.20;;;;;;4993537;28;20214;-88
2023/01/14 10:46:29;;;;;;;43.60;28.97;;;6.40;90.20;;;;;;4993418;28;20177;-89
2023/01/14 10:49:12;;;;;;;51.63;30.33;;;6.40;90.10;;;;;;4992299;28;20264;-89
2023/01/14 10:51:47;;;;;;;50.70;31.30;;;6.40;90.20;;;;;;4995050;28;20205;-88
2023/01/14 10:54:20;;;;;;;52.53;31.53;;;6.50;90.20;;;;;;4995689;28;20703;-89
2023/01/14 10:56:55;;;;;;;51.13;30.70;;;6.40;90.10;;;;;;4995982;28;20189;-90
2023/01/14 10:59:24;;;;;;;39.67;30.07;;;6.50;90.20;;;;;;4997161;28;20173;-90
2023/01/14 11:01:50;;;;;;;36.73;29.97;;;6.50;90.20;;;;;;4996300;28;20583;-90
2023/01/14 11:04:16;;;;;;;42.87;28.50;;;6.50;90.10;;;;;;4996737;28;20212;-88
2023/01/14 11:06:42;;;;;;;48.40;30.00;;;6.50;90.00;;;;;;4995833;28;20174;-88
2023/01/14 11:09:37;;;;;;;40.37;27.73;;;6.50;89.90;;;;;;4996796;28;20176;-88
2023/01/14 11:12:03;;;;;;;44.07;28.43;;;6.50;89.90;;;;;;4996294;28;20192;-89
2023/01/14 11:14:35;;;;;;;40.70;27.83;;;6.50;89.80;;;;;;4998529;28;20668;-90
2023/01/14 11:17:24;;;;;;;41.00;25.77;;;6.60;89.80;;;;;;4997622;28;20173;-87
2023/01/14 11:19:50;;;;;;;40.30;28.27;;;6.60;89.50;;;;;;4998207;28;20178;-88
2023/01/14 11:22:28;;;;;;;46.20;28.93;;;6.60;89.50;;;;;;4997054;28;20232;-90
2023/01/14 11:24:54;;;;;;;33.60;26.37;;;6.60;89.50;;;;;;4997230;28;20248;-89
2023/01/14 11:27:23;;;;;;;36.93;27.27;;;6.60;89.40;;;;;;4996651;28;20253;-89
2023/01/14 11:29:54;;;;;;;41.73;27.03;;;6.60;89.70;;;;;;4996934;28;20504;-89
2023/01/14 11:32:27;;;;;;;40.47;26.27;;;6.60;89.60;;;;;;4996651;28;20174;-88
2023/01/14 11:35:01;;;;;;;33.27;24.93;;;6.60;89.70;;;;;;4996106;28;20201;-88
2023/01/14 11:37:42;;;;;;;42.77;26.40;;;6.60;89.60;;;;;;4995173;28;20227;-88
2023/01/14 11:41:28;;;;;;;38.67;27.57;;;6.50;89.80;;;;;;4996295;28;20536;-88
2023/01/14 11:43:13;;;;;;;31.07;26.10;;;6.50;90.00;;;;;;4995850;28;20252;-89
2023/01/14 11:45:38;;;;;;;37.83;29.33;;;6.50;89.90;;;;;;4996438;28;20253;-88
2023/01/14 11:48:25;;;;;;;33.57;27.30;;;6.50;90.20;;;;;;4996227;28;20205;-88
2023/01/14 11:51:03;;;;;;;37.23;29.80;;;6.50;90.20;;;;;;4994843;28;20523;-89
2023/01/14 11:53:43;;;;;;;32.57;28.60;;;6.50;90.30;;;;;;4994759;28;20236;-89
2023/01/14 11:56:35;;;;;;;36.83;28.67;;;6.40;90.50;;;;;;4995928;28;20233;-89
2023/01/14 11:59:12;;;;;;;45.10;30.63;;;6.50;90.60;;;;;;4995943;28;20174;-88
2023/01/14 12:01:46;;;;;;;40.67;30.10;;;6.50;90.90;;;;;;4994795;28;20170;-88
2023/01/14 12:04:16;;;;;;;34.73;28.70;;;6.40;91.10;;;;;;4996047;28;20706;-88
2023/01/14 12:06:57;;;;;;;49.67;31.80;;;6.40;91.00;;;;;;4995863;28;20177;-89
2023/01/14 12:09:27;;;;;;;34.83;31.10;;;6.40;91.20;;;;;;4996107;28;20257;-89
2023/01/14 12:12:05;;;;;;;33.77;29.20;;;6.30;91.20;;;;;;4995643;28;20170;-89
2023/01/14 12:17:34;;;;;;;36.00;28.90;;;6.40;91.30;;;;;;4995603;28;20216;-89
2023/01/14 12:20:23;;;;;;;36.00;31.70;;;6.30;91.20;;;;;;4994743;28;20182;-89
2023/01/14 12:23:05;;;;;;;42.70;33.27;;;6.30;91.50;;;;;;4995147;28;20202;-89
2023/01/14 12:25:40;;;;;;;37.90;33.97;;;6.30;91.70;;;;;;4995642;28;20203;-90
2023/01/14 12:28:13;;;;;;;38.90;34.17;;;6.30;91.80;;;;;;4994132;28;20644;-89
2023/01/14 12:31:03;;;;;;;39.97;35.43;;;6.30;91.90;;;;;;4994245;28;20522;-89
2023/01/14 12:33:38;;;;;;;40.90;37.87;;;6.20;92.00;;;;;;4994076;28;20209;-89
2023/01/14 12:36:20;;;;;;;40.43;36.10;;;6.20;92.30;;;;;;4995260;28;20532;-89
2023/01/14 12:47:42;;;;;;;36.60;33.03;;;6.10;92.80;;;;;;4967143;28;20212;-89
2023/01/14 12:50:10;;;;;;;36.83;33.60;;;6.10;92.90;;;;;;4994918;28;20636;-89
2023/01/14 12:52:48;;;;;;;36.73;33.27;;;6.20;93.00;;;;;;4996323;28;20220;-89
2023/01/14 12:55:34;;;;;;;39.43;35.80;;;6.20;93.00;;;;;;4994845;28;20170;-89
2023/01/14 12:58:03;;;;;;;39.73;36.37;;;6.20;93.10;;;;;;4993531;28;20182;-89
2023/01/14 13:00:31;;;;;;;39.30;35.87;;;6.20;93.10;;;;;;4993612;28;20780;-89
2023/01/14 13:03:02;;;;;;;39.13;35.70;;;6.20;93.20;;;;;;4993788;28;20691;-89
2023/01/14 13:05:34;;;;;;;42.23;38.33;;;6.30;93.20;;;;;;4994712;28;20162;-89
2023/01/14 13:08:08;;;;;;;39.73;35.93;;;6.20;93.30;;;;;;4994692;28;20161;-89
2023/01/14 13:10:38;;;;;;;39.30;35.97;;;6.30;93.30;;;;;;4994209;28;20170;-89
2023/01/14 13:13:17;;;;;;;39.37;35.53;;;6.30;93.30;;;;;;4993235;28;20197;-89
2023/01/14 13:15:43;;;;;;;40.37;37.23;;;6.30;93.30;;;;;;4994272;28;20193;-89
2023/01/14 13:18:34;;;;;;;41.00;37.33;;;6.30;93.30;;;;;;4994452;28;20220;-89
2023/01/14 13:21:01;;;;;;;42.93;38.93;;;6.30;93.30;;;;;;4994273;28;20232;-90
2023/01/14 13:23:36;;;;;;;40.43;37.43;;;6.30;93.40;;;;;;4993046;28;20304;-89
2023/01/14 13:26:03;;;;;;;42.53;38.83;;;6.30;93.40;;;;;;4994365;28;20229;-89
2023/01/14 13:28:32;;;;;;;42.57;39.53;;;6.30;93.50;;;;;;4994380;28;20166;-87
2023/01/14 13:31:02;;;;;;;40.33;36.90;;;6.30;93.50;;;;;;4994456;28;20683;-88